Skip Navigation Links
NOAA logo - Click to go to the NOAA homepage
NOAA's National Weather Service
Alaska Aviation Weather Unit
  NWS logo - Click to go to the NWS homepage
Left Navbar Graphic     12 AKDT = 20 GMT

   
NOAA is celebrating 200 years of science, service, and stewardship. Visit the NOAA 200th celebration Web site to learn more.
USA.gov is the U.S. Government's official Web portal to all Federal, state and local government Web resources and services.
Facebook
NWS on Facebook

Important Change Regarding the AAWU Web Presence

 

Over the last several months, the AAWU has been working to navigate its webpages to a nationally supported server. Security, as well as other needs, have necessitated the change.  We have been given an extension for the site changeover while we diligently work at addressing feedback received. As of July 14, 2017, aawu.arh.noaa.gov will be discontinued. The new AAWU web address is weather.gov/aawu. It is now live and will run in-parallel with the old site until it is discontinued on July 14, 2017. Please continue to send any feedback or questions regarding the new webpages to nws.ar.aawu.webauthors@noaa.gov.  Thank you for your patience during this time of transition.
AAWU Home :: Display TAF Add Bookmark
TAF PADL 251814Z 2518/2618 18005KT P6SM -RA SCT008 BKN011
      TEMPO 2518/2521 3SM -RA BR BKN008
     FM260000 22006KT P6SM SCT015 OVC025
     FM260800 VRB02KT 3SM BR OVC005=
PADL 251424Z AUTO 00000KT 9SM -RA BKN011 OVC023 11/11 A2999=

SPECI PADL 251451Z AUTO 00000KT 8SM -RA SCT015 OVC044 11/11 A2999 RMK
     AO2 PNO $=

METAR PADL 251456Z AUTO 00000KT 10SM -RA SCT015 OVC044 11/11 A2999=

PADL 251526Z AUTO 00000KT 10SM -RA SCT015 BKN024 OVC048 11/11
A2998=

PADL 251535Z AUTO 00000KT 10SM -RA FEW007 BKN027 OVC046 11/11
A2998=

METAR PADL 251556Z 24006KT 7SM -RA SCT015 SCT021 OVC027 11/11 A2998=

METAR PADL 251656Z 22006KT 3SM -RA BR SCT015 OVC025 11/11 A2998=

PADL 251733Z VRB03KT 10SM -RA SCT004 BKN011 OVC022 11/11 A2997=

SPECI PADL 251733Z VRB03KT 10SM -RA SCT004 BKN011 OVC022 11/11 A2997 RMK
     AO2 PNO $=

METAR PADL 251756Z 22005KT 10SM -RA SCT008 BKN011 OVC022 12/11 A2997=

METAR PADL 251856Z 24008KT 10SM -RA FEW005 SCT008 OVC021 12/11 A2997=

METAR PADL 251956Z VRB05KT 7SM -RA FEW005 OVC010 12/11 A2996=


NOAA's National Weather Service
Alaska Aviation Weather Unit
6930 Sand Lake Road
Anchorage, AK 99502-1845
Disclaimer
Credits
Glossary
Privacy Policy
About Us
Career Opportunities
Contact AAWU Internet Services Site last modified: April, 17th 2012